Time,TemperatureF,DewpointF,PressureIn,WindDirection,WindDirectionDegrees,WindSpeedMPH,WindSpeedGustMPH,Humidity,HourlyPrecipIn,Conditions,Clouds,dailyrainin,SoftwareType,DateUTC
2013-07-05 00:03:00,71.9,55.3,29.93,SSE,167,5.0,5.0,56,0.00,OVC,OVC,0.00,WeatherDisplay:10.37,2013-07-05 05:03:00,
2013-07-05 00:08:00,71.8,55.7,29.93,SSE,165,3.5,3.5,57,0.00,OVC,OVC,0.00,WeatherDisplay:10.37,2013-07-05 05:08:00,
2013-07-05 00:13:00,71.7,55.7,29.94,SSE,160,4.6,4.6,57,0.00,OVC,OVC,0.00,WeatherDisplay:10.37,2013-07-05 05:13:00,
2013-07-05 00:18:00,71.6,55.6,29.94,SSE,157,3.5,3.5,57,0.00,OVC,OVC,0.00,WeatherDisplay:10.37,2013-07-05 05:18:00,
2013-07-05 00:24:00,71.5,55.5,29.94,SSE,154,3.5,3.5,57,0.00,OVC,OVC,0.00,WeatherDisplay:10.37,2013-07-05 05:24:00,
2013-07-05 00:29:00,71.3,55.8,29.94,SSE,151,0.0,0.1,58,0.00,OVC,OVC,0.00,WeatherDisplay:10.37,2013-07-05 05:29:00,
2013-07-05 00:34:00,71.2,55.7,29.93,SSE,165,2.3,2.3,58,0.00,OVC,OVC,0.00,WeatherDisplay:10.37,2013-07-05 05:34:00,
2013-07-05 00:39:00,71.0,55.5,29.93,SSE,165,3.5,3.5,58,0.00,OVC,OVC,0.00,WeatherDisplay:10.37,2013-07-05 05:39:00,
2013-07-05 00:44:00,70.8,55.3,29.93,South,169,2.0,2.0,58,0.00,OVC,OVC,0.00,WeatherDisplay:10.37,2013-07-05 05:44:00,
2013-07-05 00:50:00,70.6,55.6,29.93,SSE,148,2.3,2.3,59,0.00,OVC,OVC,0.00,WeatherDisplay:10.37,2013-07-05 05:50:00,
2013-07-05 00:55:00,70.4,55.4,29.93,SSE,148,2.3,2.3,59,0.00,OVC,OVC,0.00,WeatherDisplay:10.37,2013-07-05 05:55:00,
2013-07-05 01:00:00,70.2,55.7,29.93,SSE,148,4.6,4.6,60,0.00,OVC,OVC,0.00,WeatherDisplay:10.37,2013-07-05 06:00:00,
2013-07-05 01:05:00,70.0,55.5,29.93,SSE,151,3.5,3.5,60,0.00,OVC,OVC,0.00,WeatherDisplay:10.37,2013-07-05 06:05:00,
2013-07-05 01:10:00,69.7,55.2,29.93,SSE,158,3.5,3.5,60,0.00,OVC,OVC,0.00,WeatherDisplay:10.37,2013-07-05 06:10:00,
2013-07-05 01:15:00,69.6,55.6,29.93,SSE,159,1.2,0.0,61,0.00,OVC,OVC,0.00,WeatherDisplay:10.37,2013-07-05 06:15:00,
2013-07-05 01:21:00,69.4,55.4,29.93,SSE,159,3.5,3.5,61,0.00,OVC,OVC,0.00,WeatherDisplay:10.37,2013-07-05 06:21:00,
2013-07-05 01:26:00,69.3,55.3,29.93,SSE,153,4.6,4.6,61,0.00,OVC,OVC,0.00,WeatherDisplay:10.37,2013-07-05 06:26:00,
2013-07-05 01:31:00,69.3,55.3,29.93,SSE,153,3.5,3.5,61,0.00,OVC,OVC,0.00,WeatherDisplay:10.37,2013-07-05 06:31:00,
2013-07-05 01:36:00,69.2,55.2,29.93,SSE,159,3.5,0.0,61,0.00,OVC,OVC,0.00,WeatherDisplay:10.37,2013-07-05 06:36:00,
2013-07-05 01:41:00,69.1,55.1,29.93,SSE,157,3.5,3.5,61,0.00,OVC,OVC,0.00,WeatherDisplay:10.37,2013-07-05 06:41:00,
2013-07-05 01:46:00,69.1,55.1,29.93,South,173,3.0,3.0,61,0.00,OVC,OVC,0.00,WeatherDisplay:10.37,2013-07-05 06:46:00,
2013-07-05 01:51:00,69.0,55.0,29.93,SSE,152,2.3,2.3,61,0.00,OVC,OVC,0.00,WeatherDisplay:10.37,2013-07-05 06:51:00,
2013-07-05 01:57:00,68.9,55.3,29.93,SE,141,2.3,2.6,62,0.00,OVC,OVC,0.00,WeatherDisplay:10.37,2013-07-05 06:57:00,
2013-07-05 02:02:00,68.8,55.2,29.93,South,169,4.0,4.0,62,0.00,OVC,OVC,0.00,WeatherDisplay:10.37,2013-07-05 07:02:00,
2013-07-05 02:07:00,68.7,55.2,29.93,SSE,148,3.5,3.5,62,0.00,OVC,OVC,0.00,WeatherDisplay:10.37,2013-07-05 07:07:00,
2013-07-05 02:12:00,68.6,55.1,29.93,SSE,148,2.0,2.0,62,0.00,OVC,OVC,0.00,WeatherDisplay:10.37,2013-07-05 07:12:00,
2013-07-05 02:17:00,68.6,55.1,29.93,South,171,5.8,5.8,62,0.00,OVC,OVC,0.00,WeatherDisplay:10.37,2013-07-05 07:17:00,
2013-07-05 02:22:00,68.5,55.0,29.93,SSE,156,3.5,3.5,62,0.00,OVC,OVC,0.00,WeatherDisplay:10.37,2013-07-05 07:22:00,
2013-07-05 02:28:00,68.4,54.9,29.93,SSE,156,1.2,0.0,62,0.00,OVC,OVC,0.00,WeatherDisplay:10.37,2013-07-05 07:28:00,
2013-07-05 02:33:00,68.2,54.7,29.93,SW,214,3.5,3.5,62,0.00,OVC,OVC,0.00,WeatherDisplay:10.37,2013-07-05 07:33:00,
2013-07-05 02:38:00,68.1,54.6,29.93,SSE,152,2.3,2.3,62,0.00,OVC,OVC,0.00,WeatherDisplay:10.37,2013-07-05 07:38:00,
2013-07-05 02:43:00,68.0,54.5,29.93,SSE,152,3.5,3.5,62,0.00,OVC,OVC,0.00,WeatherDisplay:10.37,2013-07-05 07:43:00,
2013-07-05 02:48:00,67.9,54.4,29.93,SSE,152,3.5,3.5,62,0.00,OVC,OVC,0.00,WeatherDisplay:10.37,2013-07-05 07:48:00,
2013-07-05 02:53:00,67.7,54.6,29.93,SSE,152,2.3,2.3,63,0.00,OVC,OVC,0.00,WeatherDisplay:10.37,2013-07-05 07:53:00,
2013-07-05 02:59:00,67.6,54.6,29.93,SSE,152,2.3,2.3,63,0.00,OVC,OVC,0.00,WeatherDisplay:10.37,2013-07-05 07:59:00,
2013-07-05 03:04:00,67.4,54.4,29.93,SSE,152,0.0,0.0,63,0.00,OVC,OVC,0.00,WeatherDisplay:10.37,2013-07-05 08:04:00,
2013-07-05 03:09:00,67.2,54.2,29.93,SSE,152,1.2,1.2,63,0.00,OVC,OVC,0.00,WeatherDisplay:10.37,2013-07-05 08:09:00,
2013-07-05 03:14:00,67.0,54.0,29.93,SSE,152,2.3,2.3,63,0.00,OVC,OVC,0.00,WeatherDisplay:10.37,2013-07-05 08:14:00,
2013-07-05 03:19:00,66.9,54.3,29.93,SSE,152,2.0,2.0,64,0.00,OVC,OVC,0.00,WeatherDisplay:10.37,2013-07-05 08:19:00,
2013-07-05 03:24:00,66.8,54.2,29.93,SSE,152,2.3,2.3,64,0.00,OVC,OVC,0.00,WeatherDisplay:10.37,2013-07-05 08:24:00,
2013-07-05 03:30:00,66.7,54.1,29.93,SE,146,0.0,0.0,64,0.00,OVC,OVC,0.00,WeatherDisplay:10.37,2013-07-05 08:30:00,
2013-07-05 03:35:00,66.6,54.0,29.93,SE,146,0.0,0.0,64,0.00,OVC,OVC,0.00,WeatherDisplay:10.37,2013-07-05 08:35:00,
2013-07-05 03:40:00,66.5,53.9,29.93,SE,146,0.0,0.0,64,0.00,OVC,OVC,0.00,WeatherDisplay:10.37,2013-07-05 08:40:00,
2013-07-05 03:45:00,66.3,54.2,29.93,SE,146,0.0,0.0,65,0.00,OVC,OVC,0.00,WeatherDisplay:10.37,2013-07-05 08:45:00,
2013-07-05 03:50:00,66.1,54.0,29.94,SE,146,0.0,0.0,65,0.00,OVC,OVC,0.00,WeatherDisplay:10.37,2013-07-05 08:50:00,
2013-07-05 03:55:00,66.0,53.9,29.94,SE,146,2.3,2.3,65,0.00,OVC,OVC,0.00,WeatherDisplay:10.37,2013-07-05 08:55:00,
2013-07-05 04:01:00,65.8,53.7,29.94,SE,146,0.0,0.0,65,0.00,OVC,OVC,0.00,WeatherDisplay:10.37,2013-07-05 09:01:00,
2013-07-05 04:06:00,65.7,54.0,29.94,SE,146,2.3,2.3,66,0.00,OVC,OVC,0.00,WeatherDisplay:10.37,2013-07-05 09:06:00,
2013-07-05 04:11:00,65.6,53.9,29.94,SE,146,0.0,0.0,66,0.00,OVC,OVC,0.00,WeatherDisplay:10.37,2013-07-05 09:11:00,
2013-07-05 04:17:00,65.5,53.8,29.94,SE,146,1.2,0.0,66,0.00,OVC,OVC,0.00,WeatherDisplay:10.37,2013-07-05 09:17:00,
2013-07-05 04:22:00,65.4,53.7,29.94,SE,146,0.0,0.0,66,0.00,OVC,OVC,0.00,WeatherDisplay:10.37,2013-07-05 09:22:00,
2013-07-05 04:28:00,65.2,54.0,29.94,SE,146,0.0,0.0,67,0.00,OVC,OVC,0.00,WeatherDisplay:10.37,2013-07-05 09:28:00,
2013-07-05 04:33:00,65.1,53.9,29.94,SE,146,0.0,0.0,67,0.00,OVC,OVC,0.00,WeatherDisplay:10.37,2013-07-05 09:33:00,
2013-07-05 04:39:00,64.9,53.7,29.94,SE,146,1.2,1.2,67,0.00,OVC,OVC,0.00,WeatherDisplay:10.37,2013-07-05 09:39:00,
2013-07-05 04:44:00,64.7,53.9,29.94,SE,146,0.0,0.0,68,0.00,OVC,OVC,0.00,WeatherDisplay:10.37,2013-07-05 09:44:00,
2013-07-05 04:49:00,64.5,53.7,29.94,SE,146,0.0,0.0,68,0.00,OVC,OVC,0.00,WeatherDisplay:10.37,2013-07-05 09:49:00,
2013-07-05 04:54:00,64.2,53.8,29.95,SE,146,0.0,0.0,69,0.00,OVC,OVC,0.00,WeatherDisplay:10.37,2013-07-05 09:54:00,
2013-07-05 04:59:00,64.0,53.6,29.94,SE,146,0.0,0.0,69,0.00,OVC,OVC,0.00,WeatherDisplay:10.37,2013-07-05 09:59:00,
2013-07-05 05:04:00,63.9,53.9,29.94,SE,146,2.3,2.3,70,0.00,OVC,OVC,0.00,WeatherDisplay:10.37,2013-07-05 10:04:00,
2013-07-05 05:10:00,63.8,53.8,29.94,South,185,4.6,4.6,70,0.00,OVC,OVC,0.00,WeatherDisplay:10.37,2013-07-05 10:10:00,
2013-07-05 05:16:00,63.8,53.8,29.94,South,182,1.2,1.2,70,0.00,OVC,OVC,0.00,WeatherDisplay:10.37,2013-07-05 10:16:00,
2013-07-05 05:21:00,63.9,53.9,29.94,South,181,2.3,2.3,70,0.00,OVC,OVC,0.00,WeatherDisplay:10.37,2013-07-05 10:21:00,
2013-07-05 05:26:00,63.9,53.9,29.94,South,180,1.2,1.2,70,0.00,OVC,OVC,0.00,WeatherDisplay:10.37,2013-07-05 10:26:00,
2013-07-05 05:31:00,63.9,54.3,29.94,South,175,3.0,3.0,71,0.00,OVC,OVC,0.00,WeatherDisplay:10.37,2013-07-05 10:31:00,
2013-07-05 05:38:00,64.0,54.4,29.94,South,175,3.5,3.5,71,0.00,OVC,OVC,0.00,WeatherDisplay:10.37,2013-07-05 10:38:00,
2013-07-05 05:43:00,64.0,54.4,29.94,South,175,3.5,3.5,71,0.00,OVC,OVC,0.00,WeatherDisplay:10.37,2013-07-05 10:43:00,
2013-07-05 05:48:00,64.0,54.4,29.94,South,174,3.5,3.5,71,0.00,OVC,OVC,0.00,WeatherDisplay:10.37,2013-07-05 10:48:00,
2013-07-05 05:53:00,64.0,54.4,29.94,SSE,157,3.5,3.5,71,0.00,OVC,OVC,0.00,WeatherDisplay:10.37,2013-07-05 10:53:00,
2013-07-05 05:58:00,64.1,54.5,29.94,SSE,161,3.5,3.5,71,0.00,OVC,OVC,0.00,WeatherDisplay:10.37,2013-07-05 10:58:00,
2013-07-05 06:03:00,64.1,54.1,29.94,SSE,161,3.5,3.5,70,0.00,OVC,OVC,0.00,WeatherDisplay:10.37,2013-07-05 11:03:00,
2013-07-05 06:09:00,64.1,54.5,29.94,SSE,161,3.5,3.5,71,0.00,OVC,OVC,0.00,WeatherDisplay:10.37,2013-07-05 11:09:00,
2013-07-05 06:14:00,64.1,54.5,29.94,SSE,161,2.3,2.3,71,0.00,OVC,OVC,0.00,WeatherDisplay:10.37,2013-07-05 11:14:00,
2013-07-05 06:19:00,64.1,54.5,29.94,SSE,161,2.0,2.0,71,0.00,OVC,OVC,0.00,WeatherDisplay:10.37,2013-07-05 11:19:00,
2013-07-05 06:24:00,64.1,54.5,29.94,SSE,161,3.5,3.5,71,0.00,OVC,OVC,0.00,WeatherDisplay:10.37,2013-07-05 11:24:00,
2013-07-05 06:29:00,64.2,54.6,29.94,SSE,161,3.5,3.5,71,0.00,OVC,OVC,0.00,WeatherDisplay:10.37,2013-07-05 11:29:00,
2013-07-05 06:35:00,64.3,54.7,29.94,SSE,161,3.5,3.5,71,0.00,OVC,OVC,0.00,WeatherDisplay:10.37,2013-07-05 11:35:00,
2013-07-05 06:40:00,64.5,54.9,29.94,South,171,4.6,4.6,71,0.00,OVC,OVC,0.00,WeatherDisplay:10.37,2013-07-05 11:40:00,
2013-07-05 06:45:00,64.9,54.9,29.94,South,170,3.5,3.5,70,0.00,OVC,OVC,0.00,WeatherDisplay:10.37,2013-07-05 11:45:00,
2013-07-05 06:51:00,65.5,55.5,29.94,SSW,196,3.5,3.5,70,0.00,OVC,OVC,0.00,WeatherDisplay:10.37,2013-07-05 11:51:00,
2013-07-05 06:56:00,66.0,55.1,29.94,SE,145,4.6,4.6,68,0.00,OVC,OVC,0.00,WeatherDisplay:10.37,2013-07-05 11:56:00,
2013-07-05 07:01:00,66.4,55.5,29.94,SSE,151,3.5,3.5,68,0.00,OVC,OVC,0.00,WeatherDisplay:10.37,2013-07-05 12:01:00,
2013-07-05 07:07:00,66.8,55.5,29.94,SE,142,4.0,4.0,67,0.00,OVC,OVC,0.00,WeatherDisplay:10.37,2013-07-05 12:07:00,
2013-07-05 07:12:00,67.0,55.3,29.94,SSE,162,3.5,3.5,66,0.00,OVC,OVC,0.00,WeatherDisplay:10.37,2013-07-05 12:12:00,
2013-07-05 07:18:00,67.1,55.4,29.95,South,176,6.9,6.9,66,0.00,OVC,OVC,0.00,WeatherDisplay:10.37,2013-07-05 12:18:00,
2013-07-05 07:23:00,67.2,55.5,29.95,South,174,2.3,2.3,66,0.00,OVC,OVC,0.00,WeatherDisplay:10.37,2013-07-05 12:23:00,
2013-07-05 07:28:00,67.3,55.5,29.95,SSE,161,3.5,3.5,66,0.00,OVC,OVC,0.00,WeatherDisplay:10.37,2013-07-05 12:28:00,
2013-07-05 07:33:00,67.5,55.7,29.95,SSE,151,3.5,3.5,66,0.00,OVC,OVC,0.00,WeatherDisplay:10.37,2013-07-05 12:33:00,
2013-07-05 07:39:00,67.7,55.9,29.96,SSE,159,2.3,2.3,66,0.00,OVC,OVC,0.00,WeatherDisplay:10.37,2013-07-05 12:39:00,
2013-07-05 07:44:00,68.0,55.8,29.95,SSE,155,4.6,4.6,65,0.00,OVC,OVC,0.00,WeatherDisplay:10.37,2013-07-05 12:44:00,
2013-07-05 07:50:00,68.4,55.7,29.95,South,170,3.5,3.5,64,0.00,OVC,OVC,0.00,WeatherDisplay:10.37,2013-07-05 12:50:00,
2013-07-05 07:55:00,68.8,56.1,29.96,SSE,156,6.9,6.9,64,0.00,OVC,OVC,0.00,WeatherDisplay:10.37,2013-07-05 12:55:00,
2013-07-05 08:00:00,69.1,56.4,29.96,SSE,156,0.0,0.1,64,0.00,OVC,OVC,0.00,WeatherDisplay:10.37,2013-07-05 13:00:00,
2013-07-05 08:06:00,69.5,55.9,29.96,SSE,167,4.6,4.6,62,0.00,OVC,OVC,0.00,WeatherDisplay:10.37,2013-07-05 13:06:00,
2013-07-05 08:11:00,69.9,56.7,29.96,SSE,163,3.5,3.5,63,0.00,OVC,OVC,0.00,WeatherDisplay:10.37,2013-07-05 13:11:00,
2013-07-05 08:16:00,70.2,56.6,29.96,South,169,5.0,5.0,62,0.00,OVC,OVC,0.00,WeatherDisplay:10.37,2013-07-05 13:16:00,
2013-07-05 08:21:00,70.6,56.5,29.96,South,181,5.8,5.8,61,0.00,OVC,OVC,0.00,WeatherDisplay:10.37,2013-07-05 13:21:00,
2013-07-05 08:26:00,71.0,56.9,29.96,SE,141,6.9,6.9,61,0.00,OVC,OVC,0.00,WeatherDisplay:10.37,2013-07-05 13:26:00,
2013-07-05 08:31:00,71.3,56.7,29.96,SSE,165,5.0,5.0,60,0.00,OVC,OVC,0.00,WeatherDisplay:10.37,2013-07-05 13:31:00,
2013-07-05 08:37:00,71.6,57.0,29.96,SSE,166,3.5,3.5,60,0.00,OVC,OVC,0.00,WeatherDisplay:10.37,2013-07-05 13:37:00,
2013-07-05 08:42:00,72.0,56.9,29.96,SSW,198,6.0,6.0,59,0.00,OVC,OVC,0.00,WeatherDisplay:10.37,2013-07-05 13:42:00,
2013-07-05 08:47:00,72.4,57.3,29.96,SSE,156,5.0,5.0,59,0.00,OVC,OVC,0.00,WeatherDisplay:10.37,2013-07-05 13:47:00,
2013-07-05 08:52:00,72.8,56.7,29.96,South,173,11.5,11.5,57,0.00,OVC,OVC,0.00,WeatherDisplay:10.37,2013-07-05 13:52:00,
2013-07-05 08:58:00,73.4,56.7,29.96,South,171,5.8,5.8,56,0.00,OVC,OVC,0.00,WeatherDisplay:10.37,2013-07-05 13:58:00,
2013-07-05 09:03:00,73.8,57.6,29.95,South,191,6.9,6.9,57,0.00,OVC,OVC,0.00,WeatherDisplay:10.37,2013-07-05 14:03:00,
2013-07-05 09:08:00,74.3,57.6,29.96,SE,126,6.9,6.9,56,0.00,OVC,OVC,0.00,WeatherDisplay:10.37,2013-07-05 14:08:00,
2013-07-05 09:13:00,74.7,57.5,29.96,South,174,4.6,4.6,55,0.00,OVC,OVC,0.00,WeatherDisplay:10.37,2013-07-05 14:13:00,
2013-07-05 09:19:00,75.4,57.1,29.96,South,174,6.9,6.9,53,0.00,OVC,OVC,0.00,WeatherDisplay:10.37,2013-07-05 14:19:00,
2013-07-05 09:24:00,76.0,57.6,29.95,SSE,166,3.5,3.5,53,0.00,OVC,OVC,0.00,WeatherDisplay:10.37,2013-07-05 14:24:00,
2013-07-05 09:29:00,76.6,58.2,29.95,ESE,117,5.0,5.0,53,0.00,OVC,OVC,0.00,WeatherDisplay:10.37,2013-07-05 14:29:00,
2013-07-05 09:35:00,77.2,57.7,29.95,SSE,151,10.4,10.4,51,0.00,OVC,OVC,0.00,WeatherDisplay:10.37,2013-07-05 14:35:00,
2013-07-05 09:40:00,77.8,57.7,29.95,SSE,155,9.2,9.2,50,0.00,OVC,OVC,0.00,WeatherDisplay:10.37,2013-07-05 14:40:00,
2013-07-05 09:45:00,78.4,58.8,29.94,SE,143,6.9,6.9,51,0.00,OVC,OVC,0.00,WeatherDisplay:10.37,2013-07-05 14:45:00,
2013-07-05 09:50:00,79.0,57.6,29.94,SSE,155,8.1,8.1,48,0.00,OVC,OVC,0.00,WeatherDisplay:10.37,2013-07-05 14:50:00,
2013-07-05 09:56:00,79.5,57.5,29.94,SE,137,9.2,9.2,47,0.00,OVC,OVC,0.00,WeatherDisplay:10.37,2013-07-05 14:56:00,
2013-07-05 10:01:00,80.1,58.0,29.94,South,169,3.5,3.5,47,0.00,OVC,OVC,0.00,WeatherDisplay:10.37,2013-07-05 15:01:00,
2013-07-05 10:06:00,80.8,58.1,29.94,South,171,3.5,3.5,46,0.00,OVC,OVC,0.00,WeatherDisplay:10.37,2013-07-05 15:06:00,
2013-07-05 10:12:00,81.5,58.1,29.94,SSE,147,15.0,15.0,45,0.00,OVC,OVC,0.00,WeatherDisplay:10.37,2013-07-05 15:12:00,
2013-07-05 10:17:00,82.0,57.9,29.94,South,173,11.5,11.5,44,0.00,OVC,OVC,0.00,WeatherDisplay:10.37,2013-07-05 15:17:00,
2013-07-05 10:22:00,82.3,58.8,29.94,SSE,158,4.6,4.6,45,0.00,OVC,OVC,0.00,WeatherDisplay:10.37,2013-07-05 15:22:00,
2013-07-05 10:27:00,82.8,58.0,29.94,SSE,158,8.1,8.1,43,0.00,OVC,OVC,0.00,WeatherDisplay:10.37,2013-07-05 15:27:00,
2013-07-05 10:32:00,83.2,57.7,29.94,SSE,164,12.0,12.0,42,0.00,OVC,OVC,0.00,WeatherDisplay:10.37,2013-07-05 15:32:00,
2013-07-05 10:38:00,83.5,57.3,29.94,SSE,155,5.8,5.8,41,0.00,OVC,OVC,0.00,WeatherDisplay:10.37,2013-07-05 15:38:00,
2013-07-05 10:43:00,83.9,57.7,29.93,SSE,155,5.8,5.8,41,0.00,OVC,OVC,0.00,WeatherDisplay:10.37,2013-07-05 15:43:00,
2013-07-05 10:48:00,84.3,57.3,29.93,SSE,148,5.8,5.8,40,0.00,OVC,OVC,0.00,WeatherDisplay:10.37,2013-07-05 15:48:00,
2013-07-05 10:53:00,84.7,58.4,29.93,SSE,165,9.2,9.2,41,0.00,OVC,OVC,0.00,WeatherDisplay:10.37,2013-07-05 15:53:00,
2013-07-05 10:58:00,85.2,58.2,29.93,SE,145,6.9,6.9,40,0.00,OVC,OVC,0.00,WeatherDisplay:10.37,2013-07-05 15:58:00,
2013-07-05 11:03:00,85.7,57.2,29.93,South,174,5.8,5.8,38,0.00,OVC,OVC,0.00,WeatherDisplay:10.37,2013-07-05 16:03:00,
2013-07-05 11:08:00,86.0,58.2,29.93,SE,146,2.0,2.0,39,0.00,OVC,OVC,0.00,WeatherDisplay:10.37,2013-07-05 16:08:00,
2013-07-05 11:10:00,86.2,57.6,29.93,SSE,153,4.6,4.6,38,0.00,OVC,OVC,0.00,WeatherDisplay:10.37,2013-07-05 16:10:00,
2013-07-05 11:15:00,86.7,56.6,29.93,South,183,5.0,5.0,36,0.00,OVC,OVC,0.00,WeatherDisplay:10.37,2013-07-05 16:15:00,
2013-07-05 11:20:00,87.0,56.8,29.93,SSE,155,6.9,6.9,36,0.00,OVC,OVC,0.00,WeatherDisplay:10.37,2013-07-05 16:20:00,
2013-07-05 11:25:00,87.0,56.8,29.93,SSW,198,10.4,10.4,36,0.00,OVC,OVC,0.00,WeatherDisplay:10.37,2013-07-05 16:25:00,
2013-07-05 11:31:00,87.1,56.9,29.93,SSE,152,4.6,4.6,36,0.00,OVC,OVC,0.00,WeatherDisplay:10.37,2013-07-05 16:31:00,
2013-07-05 11:36:00,87.4,57.9,29.92,SSW,198,5.0,5.0,37,0.00,OVC,OVC,0.00,WeatherDisplay:10.37,2013-07-05 16:36:00,
2013-07-05 11:41:00,88.1,58.6,29.92,SSE,155,4.0,4.0,37,0.00,OVC,OVC,0.00,WeatherDisplay:10.37,2013-07-05 16:41:00,
2013-07-05 11:46:00,88.7,58.3,29.92,SSE,154,3.5,3.5,36,0.00,OVC,OVC,0.00,WeatherDisplay:10.37,2013-07-05 16:46:00,
2013-07-05 11:51:00,89.3,58.1,29.92,SSE,159,9.2,9.2,35,0.00,OVC,OVC,0.00,WeatherDisplay:10.37,2013-07-05 16:51:00,
2013-07-05 11:56:00,89.4,57.3,29.92,SSE,155,10.4,10.4,34,0.00,OVC,OVC,0.00,WeatherDisplay:10.37,2013-07-05 16:56:00,
2013-07-05 12:01:00,89.2,57.2,29.92,SSE,147,9.2,9.2,34,0.00,OVC,OVC,0.00,WeatherDisplay:10.37,2013-07-05 17:01:00,
2013-07-05 12:07:00,88.9,57.7,29.92,SSE,152,6.9,6.9,35,0.00,OVC,OVC,0.00,WeatherDisplay:10.37,2013-07-05 17:07:00,
2013-07-05 12:12:00,89.0,57.8,29.92,SSE,153,5.0,5.0,35,0.00,OVC,OVC,0.00,WeatherDisplay:10.37,2013-07-05 17:12:00,
2013-07-05 12:17:00,89.0,57.0,29.91,SSE,153,12.7,12.7,34,0.00,OVC,OVC,0.00,WeatherDisplay:10.37,2013-07-05 17:17:00,
2013-07-05 12:22:00,89.0,57.8,29.91,South,172,9.2,9.2,35,0.00,OVC,OVC,0.00,WeatherDisplay:10.37,2013-07-05 17:22:00,
2013-07-05 12:27:00,89.3,58.1,29.91,SE,142,4.6,4.6,35,0.00,OVC,OVC,0.00,WeatherDisplay:10.37,2013-07-05 17:27:00,
2013-07-05 12:32:00,89.5,57.4,29.91,SSE,152,6.9,6.9,34,0.00,OVC,OVC,0.00,WeatherDisplay:10.37,2013-07-05 17:32:00,
2013-07-05 12:38:00,89.7,56.8,29.92,South,172,16.1,16.1,33,0.00,OVC,OVC,0.00,WeatherDisplay:10.37,2013-07-05 17:38:00,
2013-07-05 12:43:00,89.8,56.9,29.91,South,169,10.4,10.4,33,0.00,OVC,OVC,0.00,WeatherDisplay:10.37,2013-07-05 17:43:00,
2013-07-05 12:48:00,89.9,57.8,29.91,SSE,152,3.5,3.5,34,0.00,OVC,OVC,0.00,WeatherDisplay:10.37,2013-07-05 17:48:00,
2013-07-05 12:53:00,90.1,56.3,29.91,SSE,166,11.5,11.5,32,0.00,OVC,OVC,0.00,WeatherDisplay:10.37,2013-07-05 17:53:00,
2013-07-05 12:54:00,90.2,56.4,29.91,South,175,13.8,13.8,32,0.00,OVC,OVC,0.00,WeatherDisplay:10.37,2013-07-05 17:54:00,
2013-07-05 12:59:00,90.4,57.4,29.91,South,178,6.9,6.9,33,0.00,OVC,OVC,0.00,WeatherDisplay:10.37,2013-07-05 17:59:00,
2013-07-05 13:04:00,90.5,56.6,29.91,SSE,166,11.5,11.5,32,0.00,OVC,OVC,0.00,WeatherDisplay:10.37,2013-07-05 18:04:00,
2013-07-05 13:09:00,90.7,56.8,29.91,SSE,148,10.4,10.4,32,0.00,OVC,OVC,0.00,WeatherDisplay:10.37,2013-07-05 18:09:00,
2013-07-05 13:14:00,91.0,59.5,29.90,NNW,327,4.0,4.0,35,0.00,OVC,OVC,0.00,WeatherDisplay:10.37,2013-07-05 18:14:00,
2013-07-05 13:19:00,91.4,57.4,29.91,SSE,161,11.5,11.5,32,0.00,OVC,OVC,0.00,WeatherDisplay:10.37,2013-07-05 18:19:00,
2013-07-05 13:24:00,91.7,56.8,29.91,SSE,156,12.7,12.7,31,0.00,OVC,OVC,0.00,WeatherDisplay:10.37,2013-07-05 18:24:00,
2013-07-05 13:30:00,91.4,56.5,29.90,SE,146,5.8,5.8,31,0.00,OVC,OVC,0.00,WeatherDisplay:10.37,2013-07-05 18:30:00,
2013-07-05 13:35:00,91.1,57.1,29.90,SSE,153,3.5,3.5,32,0.00,OVC,OVC,0.00,WeatherDisplay:10.37,2013-07-05 18:35:00,
2013-07-05 13:40:00,91.1,56.3,29.90,SSE,162,6.9,6.9,31,0.00,OVC,OVC,0.00,WeatherDisplay:10.37,2013-07-05 18:40:00,
2013-07-05 13:45:00,91.4,56.5,29.90,SSE,163,6.9,6.9,31,0.00,OVC,OVC,0.00,WeatherDisplay:10.37,2013-07-05 18:45:00,
2013-07-05 13:50:00,91.7,55.9,29.90,SE,130,8.1,8.1,30,0.00,OVC,OVC,0.00,WeatherDisplay:10.37,2013-07-05 18:50:00,
2013-07-05 13:51:00,91.7,54.9,29.90,SSE,151,6.9,6.9,29,0.00,OVC,OVC,0.00,WeatherDisplay:10.37,2013-07-05 18:51:00,
2013-07-05 13:56:00,91.5,55.7,29.90,South,170,13.0,13.0,30,0.00,OVC,OVC,0.00,WeatherDisplay:10.37,2013-07-05 18:56:00,
2013-07-05 14:01:00,91.2,55.4,29.90,SSE,164,9.2,9.2,30,0.00,OVC,OVC,0.00,WeatherDisplay:10.37,2013-07-05 19:01:00,
2013-07-05 14:07:00,91.4,56.5,29.90,South,173,6.0,6.0,31,0.00,OVC,OVC,0.00,WeatherDisplay:10.37,2013-07-05 19:07:00,
2013-07-05 14:09:00,91.7,55.9,29.89,SE,134,11.5,11.5,30,0.00,OVC,OVC,0.00,WeatherDisplay:10.37,2013-07-05 19:09:00,
2013-07-05 14:14:00,91.9,56.0,29.89,South,173,4.6,4.6,30,0.00,OVC,OVC,0.00,WeatherDisplay:10.37,2013-07-05 19:14:00,
2013-07-05 14:19:00,92.3,55.4,29.89,SE,141,11.5,11.5,29,0.00,OVC,OVC,0.00,WeatherDisplay:10.37,2013-07-05 19:19:00,
2013-07-05 14:24:00,92.4,54.6,29.89,South,178,17.0,17.0,28,0.00,OVC,OVC,0.00,WeatherDisplay:10.37,2013-07-05 19:24:00,
2013-07-05 14:29:00,92.1,56.2,29.89,SE,144,6.9,6.9,30,0.00,OVC,OVC,0.00,WeatherDisplay:10.37,2013-07-05 19:29:00,
2013-07-05 14:34:00,92.1,55.3,29.89,SSE,157,12.7,12.7,29,0.00,OVC,OVC,0.00,WeatherDisplay:10.37,2013-07-05 19:34:00,
2013-07-05 14:35:00,92.1,55.3,29.89,SE,140,11.5,11.5,29,0.00,OVC,OVC,0.00,WeatherDisplay:10.37,2013-07-05 19:35:00,
2013-07-05 14:40:00,92.2,55.4,29.89,South,183,11.5,11.5,29,0.00,OVC,OVC,0.00,WeatherDisplay:10.37,2013-07-05 19:40:00,
2013-07-05 14:45:00,92.5,55.6,29.89,SSE,166,11.5,11.5,29,0.00,OVC,OVC,0.00,WeatherDisplay:10.37,2013-07-05 19:45:00,
2013-07-05 14:51:00,92.5,55.6,29.89,SE,144,3.5,3.5,29,0.00,OVC,OVC,0.00,WeatherDisplay:10.37,2013-07-05 19:51:00,
2013-07-05 14:56:00,92.6,55.7,29.89,SSE,159,9.2,9.2,29,0.00,OVC,OVC,0.00,WeatherDisplay:10.37,2013-07-05 19:56:00,
2013-07-05 15:01:00,92.0,55.2,29.89,SSE,163,11.5,11.5,29,0.00,OVC,OVC,0.00,WeatherDisplay:10.37,2013-07-05 20:01:00,
2013-07-05 15:06:00,91.8,56.0,29.89,SSE,155,5.8,5.8,30,0.00,OVC,OVC,0.00,WeatherDisplay:10.37,2013-07-05 20:06:00,
2013-07-05 15:11:00,92.1,56.2,29.89,SSE,155,9.0,9.0,30,0.00,OVC,OVC,0.00,WeatherDisplay:10.37,2013-07-05 20:11:00,
2013-07-05 15:16:00,92.2,55.4,29.89,SSE,153,7.0,7.0,29,0.00,OVC,OVC,0.00,WeatherDisplay:10.37,2013-07-05 20:16:00,
2013-07-05 15:21:00,91.8,55.0,29.89,South,173,11.5,11.5,29,0.00,OVC,OVC,0.00,WeatherDisplay:10.37,2013-07-05 20:21:00,
2013-07-05 15:26:00,90.8,56.0,29.89,SSE,148,5.8,5.8,31,0.00,OVC,OVC,0.00,WeatherDisplay:10.37,2013-07-05 20:26:00,
2013-07-05 15:27:00,90.7,55.9,29.89,SSE,148,5.8,5.8,31,0.00,OVC,OVC,0.00,WeatherDisplay:10.37,2013-07-05 20:27:00,
2013-07-05 15:32:00,90.2,55.5,29.89,SSE,156,8.1,8.1,31,0.00,OVC,OVC,0.00,WeatherDisplay:10.37,2013-07-05 20:32:00,
2013-07-05 15:38:00,90.0,55.3,29.89,SE,145,13.8,13.8,31,0.00,OVC,OVC,0.00,WeatherDisplay:10.37,2013-07-05 20:38:00,
2013-07-05 15:43:00,90.3,55.6,29.89,SSE,167,9.2,9.2,31,0.00,OVC,OVC,0.00,WeatherDisplay:10.37,2013-07-05 20:43:00,
2013-07-05 15:48:00,90.7,55.9,29.89,SSE,150,10.4,10.4,31,0.00,OVC,OVC,0.00,WeatherDisplay:10.37,2013-07-05 20:48:00,
2013-07-05 15:53:00,90.9,56.1,29.89,South,170,8.1,8.1,31,0.00,OVC,OVC,0.00,WeatherDisplay:10.37,2013-07-05 20:53:00,
2013-07-05 15:58:00,90.9,55.2,29.89,South,170,15.0,15.0,30,0.00,OVC,OVC,0.00,WeatherDisplay:10.37,2013-07-05 20:58:00,
2013-07-05 16:03:00,91.1,55.3,29.89,SE,145,12.0,12.0,30,0.00,OVC,OVC,0.00,WeatherDisplay:10.37,2013-07-05 21:03:00,
2013-07-05 16:08:00,91.2,56.3,29.89,SSE,155,8.1,8.1,31,0.00,OVC,OVC,0.00,WeatherDisplay:10.37,2013-07-05 21:08:00,
2013-07-05 16:14:00,91.0,55.3,29.89,SSE,158,13.8,13.8,30,0.00,OVC,OVC,0.00,WeatherDisplay:10.37,2013-07-05 21:14:00,
2013-07-05 16:19:00,90.5,56.6,29.89,South,171,19.6,19.6,32,0.00,OVC,OVC,0.00,WeatherDisplay:10.37,2013-07-05 21:19:00,
2013-07-05 16:24:00,90.5,56.6,29.88,ESE,117,11.5,11.5,32,0.00,OVC,OVC,0.00,WeatherDisplay:10.37,2013-07-05 21:24:00,
2013-07-05 16:29:00,90.6,56.7,29.88,South,180,15.0,15.0,32,0.00,OVC,OVC,0.00,WeatherDisplay:10.37,2013-07-05 21:29:00,
2013-07-05 16:34:00,91.1,57.1,29.89,SSE,154,6.9,6.9,32,0.00,OVC,OVC,0.00,WeatherDisplay:10.37,2013-07-05 21:34:00,
2013-07-05 16:40:00,91.1,56.3,29.88,SSE,168,11.5,11.5,31,0.00,OVC,OVC,0.00,WeatherDisplay:10.37,2013-07-05 21:40:00,
2013-07-05 16:45:00,91.2,55.4,29.88,SE,137,10.4,10.4,30,0.00,OVC,OVC,0.00,WeatherDisplay:10.37,2013-07-05 21:45:00,
2013-07-05 16:50:00,91.0,55.3,29.88,SSE,147,11.5,11.5,30,0.00,OVC,OVC,0.00,WeatherDisplay:10.37,2013-07-05 21:50:00,
2013-07-05 16:55:00,90.9,55.2,29.89,SE,138,10.4,10.4,30,0.00,OVC,OVC,0.00,WeatherDisplay:10.37,2013-07-05 21:55:00,
2013-07-05 17:00:00,90.4,55.6,29.88,SSE,157,9.2,9.2,31,0.00,OVC,OVC,0.00,WeatherDisplay:10.37,2013-07-05 22:00:00,
2013-07-05 17:06:00,90.2,55.5,29.88,South,180,16.1,16.1,31,0.00,OVC,OVC,0.00,WeatherDisplay:10.37,2013-07-05 22:06:00,
2013-07-05 17:11:00,90.1,56.3,29.88,South,175,3.5,3.5,32,0.00,OVC,OVC,0.00,WeatherDisplay:10.37,2013-07-05 22:11:00,
2013-07-05 17:16:00,90.4,55.6,29.88,SE,142,17.3,17.3,31,0.00,OVC,OVC,0.00,WeatherDisplay:10.37,2013-07-05 22:16:00,
2013-07-05 17:21:00,90.0,55.3,29.88,SSE,157,11.5,11.5,31,0.00,OVC,OVC,0.00,WeatherDisplay:10.37,2013-07-05 22:21:00,
2013-07-05 17:26:00,89.5,54.9,29.88,South,179,12.0,12.0,31,0.00,OVC,OVC,0.00,WeatherDisplay:10.37,2013-07-05 22:26:00,
2013-07-05 17:31:00,89.2,56.3,29.88,South,180,11.0,11.0,33,0.00,OVC,OVC,0.00,WeatherDisplay:10.37,2013-07-05 22:31:00,
2013-07-05 17:37:00,88.9,55.2,29.88,SSE,163,15.0,15.0,32,0.00,OVC,OVC,0.00,WeatherDisplay:10.37,2013-07-05 22:37:00,
2013-07-05 17:42:00,88.7,55.1,29.87,South,173,9.2,9.2,32,0.00,OVC,OVC,0.00,WeatherDisplay:10.37,2013-07-05 22:42:00,
2013-07-05 17:47:00,88.6,55.8,29.87,ESE,122,12.7,12.7,33,0.00,OVC,OVC,0.00,WeatherDisplay:10.37,2013-07-05 22:47:00,
2013-07-05 17:52:00,88.5,55.7,29.87,SE,144,10.4,10.4,33,0.00,OVC,OVC,0.00,WeatherDisplay:10.37,2013-07-05 22:52:00,
2013-07-05 17:57:00,88.8,56.0,29.87,South,180,12.7,12.7,33,0.00,OVC,OVC,0.00,WeatherDisplay:10.37,2013-07-05 22:57:00,
2013-07-05 18:02:00,89.1,55.4,29.87,SSE,155,10.4,10.4,32,0.00,OVC,OVC,0.00,WeatherDisplay:10.37,2013-07-05 23:02:00,
2013-07-05 18:07:00,89.1,55.4,29.87,South,189,11.5,11.5,32,0.00,OVC,OVC,0.00,WeatherDisplay:10.37,2013-07-05 23:07:00,
2013-07-05 18:09:00,89.0,55.3,29.87,SSE,164,9.2,9.2,32,0.00,OVC,OVC,0.00,WeatherDisplay:10.37,2013-07-05 23:09:00,
2013-07-05 18:14:00,89.0,56.2,29.87,SE,144,6.0,6.0,33,0.00,OVC,OVC,0.00,WeatherDisplay:10.37,2013-07-05 23:14:00,
2013-07-05 18:19:00,89.0,55.3,29.87,SE,142,11.5,11.5,32,0.00,OVC,OVC,0.00,WeatherDisplay:10.37,2013-07-05 23:19:00,
2013-07-05 18:24:00,88.9,55.2,29.87,SE,139,11.5,11.5,32,0.00,OVC,OVC,0.00,WeatherDisplay:10.37,2013-07-05 23:24:00,
2013-07-05 18:30:00,88.9,56.1,29.87,SE,143,11.5,11.5,33,0.00,OVC,OVC,0.00,WeatherDisplay:10.37,2013-07-05 23:30:00,
2013-07-05 18:35:00,88.8,56.0,29.87,SSE,167,3.5,3.5,33,0.00,OVC,OVC,0.00,WeatherDisplay:10.37,2013-07-05 23:35:00,
2013-07-05 18:40:00,88.9,56.1,29.86,SE,146,5.8,5.8,33,0.00,OVC,OVC,0.00,WeatherDisplay:10.37,2013-07-05 23:40:00,
2013-07-05 18:46:00,88.8,55.1,29.86,SSE,166,11.5,11.5,32,0.00,OVC,OVC,0.00,WeatherDisplay:10.37,2013-07-05 23:46:00,
2013-07-05 18:51:00,88.2,55.5,29.87,SSE,162,3.5,3.5,33,0.00,OVC,OVC,0.00,WeatherDisplay:10.37,2013-07-05 23:51:00,
2013-07-05 18:56:00,87.3,55.5,29.87,South,175,8.0,8.0,34,0.00,OVC,OVC,0.00,WeatherDisplay:10.37,2013-07-05 23:56:00,
2013-07-05 19:01:00,86.6,54.9,29.87,SSE,157,6.0,6.0,34,0.00,OVC,OVC,0.00,WeatherDisplay:10.37,2013-07-06 00:01:00,
2013-07-05 19:07:00,86.0,55.2,29.87,SSE,168,4.6,4.6,35,0.00,OVC,OVC,0.00,WeatherDisplay:10.37,2013-07-06 00:07:00,
2013-07-05 19:13:00,85.5,55.5,29.87,SSE,160,3.5,3.5,36,0.00,OVC,OVC,0.00,WeatherDisplay:10.37,2013-07-06 00:13:00,
2013-07-05 19:18:00,85.3,55.3,29.87,SSE,155,4.6,4.6,36,0.00,OVC,OVC,0.00,WeatherDisplay:10.37,2013-07-06 00:18:00,
2013-07-05 19:24:00,85.2,55.2,29.87,SSE,153,6.9,6.9,36,0.00,OVC,OVC,0.00,WeatherDisplay:10.37,2013-07-06 00:24:00,
2013-07-05 19:29:00,85.2,55.2,29.87,SSE,148,9.2,9.2,36,0.00,OVC,OVC,0.00,WeatherDisplay:10.37,2013-07-06 00:29:00,
2013-07-05 19:34:00,85.0,55.1,29.87,SSE,153,6.9,6.9,36,0.00,OVC,OVC,0.00,WeatherDisplay:10.37,2013-07-06 00:34:00,
2013-07-05 19:39:00,84.9,55.0,29.87,SSE,158,6.0,6.0,36,0.00,OVC,OVC,0.00,WeatherDisplay:10.37,2013-07-06 00:39:00,
2013-07-05 19:45:00,84.7,55.5,29.87,South,171,4.6,4.6,37,0.00,OVC,OVC,0.00,WeatherDisplay:10.37,2013-07-06 00:45:00,
2013-07-05 19:50:00,84.6,55.5,29.87,SSE,149,6.9,6.9,37,0.00,OVC,OVC,0.00,WeatherDisplay:10.37,2013-07-06 00:50:00,
2013-07-05 19:55:00,84.3,55.2,29.88,SE,146,5.8,5.8,37,0.00,OVC,OVC,0.00,WeatherDisplay:10.37,2013-07-06 00:55:00,
2013-07-05 20:00:00,84.1,55.0,29.87,SE,131,4.0,4.0,37,0.00,OVC,OVC,0.00,WeatherDisplay:10.37,2013-07-06 01:00:00,
2013-07-05 20:05:00,83.8,55.5,29.87,SSE,167,4.6,4.6,38,0.00,OVC,OVC,0.00,WeatherDisplay:10.37,2013-07-06 01:05:00,
2013-07-05 20:10:00,83.6,55.3,29.87,SSE,165,2.3,2.3,38,0.00,OVC,OVC,0.00,WeatherDisplay:10.37,2013-07-06 01:10:00,
2013-07-05 20:15:00,83.2,55.7,29.87,SSE,153,3.5,3.5,39,0.00,OVC,OVC,0.00,WeatherDisplay:10.37,2013-07-06 01:15:00,
2013-07-05 20:20:00,82.9,55.4,29.87,SSE,154,3.5,3.5,39,0.00,OVC,OVC,0.00,WeatherDisplay:10.37,2013-07-06 01:20:00,
2013-07-05 20:26:00,82.6,55.8,29.88,SSE,155,3.5,3.5,40,0.00,OVC,OVC,0.00,WeatherDisplay:10.37,2013-07-06 01:26:00,
2013-07-05 20:31:00,82.3,56.2,29.88,SE,144,1.2,1.2,41,0.00,OVC,OVC,0.00,WeatherDisplay:10.37,2013-07-06 01:31:00,
2013-07-05 20:36:00,82.0,56.6,29.87,SSE,161,2.3,2.3,42,0.00,OVC,OVC,0.00,WeatherDisplay:10.37,2013-07-06 01:36:00,
2013-07-05 20:41:00,81.6,56.3,29.87,SSE,157,2.3,2.3,42,0.00,OVC,OVC,0.00,WeatherDisplay:10.37,2013-07-06 01:41:00,
2013-07-05 20:46:00,81.3,56.0,29.87,SSE,165,5.8,5.8,42,0.00,OVC,OVC,0.00,WeatherDisplay:10.37,2013-07-06 01:46:00,
2013-07-05 20:48:00,81.2,55.9,29.87,SSE,165,4.6,4.6,42,0.00,OVC,OVC,0.00,WeatherDisplay:10.37,2013-07-06 01:48:00,
2013-07-05 20:54:00,80.9,56.3,29.87,SE,146,6.0,6.0,43,0.00,OVC,OVC,0.00,WeatherDisplay:10.37,2013-07-06 01:54:00,
2013-07-05 20:59:00,80.7,56.1,29.87,SSE,153,4.6,4.6,43,0.00,OVC,OVC,0.00,WeatherDisplay:10.37,2013-07-06 01:59:00,
2013-07-05 21:04:00,80.4,55.9,29.87,SSE,148,5.8,5.8,43,0.00,OVC,OVC,0.00,WeatherDisplay:10.37,2013-07-06 02:04:00,
2013-07-05 21:09:00,80.1,55.6,29.87,South,171,6.0,6.0,43,0.00,OVC,OVC,0.00,WeatherDisplay:10.37,2013-07-06 02:09:00,
2013-07-05 21:14:00,79.9,56.0,29.87,SSE,157,5.0,5.0,44,0.00,OVC,OVC,0.00,WeatherDisplay:10.37,2013-07-06 02:14:00,
2013-07-05 21:19:00,79.6,55.8,29.88,SSE,159,3.5,3.5,44,0.00,OVC,OVC,0.00,WeatherDisplay:10.37,2013-07-06 02:19:00,
2013-07-05 21:25:00,79.4,56.2,29.88,SSE,159,1.2,1.2,45,0.00,OVC,OVC,0.00,WeatherDisplay:10.37,2013-07-06 02:25:00,
2013-07-05 21:30:00,79.1,55.9,29.88,SSE,159,2.3,0.0,45,0.00,OVC,OVC,0.00,WeatherDisplay:10.37,2013-07-06 02:30:00,
2013-07-05 21:35:00,78.7,56.2,29.87,South,173,2.0,2.0,46,0.00,OVC,OVC,0.00,WeatherDisplay:10.37,2013-07-06 02:35:00,
2013-07-05 21:40:00,78.5,56.6,29.88,SSE,167,3.5,3.5,47,0.00,OVC,OVC,0.00,WeatherDisplay:10.37,2013-07-06 02:40:00,
2013-07-05 21:45:00,78.3,56.4,29.88,SSE,163,3.5,3.5,47,0.00,OVC,OVC,0.00,WeatherDisplay:10.37,2013-07-06 02:45:00,
2013-07-05 21:50:00,78.0,56.7,29.88,South,170,3.5,3.5,48,0.00,OVC,OVC,0.00,WeatherDisplay:10.37,2013-07-06 02:50:00,
2013-07-05 21:55:00,77.9,56.6,29.89,ESE,117,4.6,4.6,48,0.00,OVC,OVC,0.00,WeatherDisplay:10.37,2013-07-06 02:55:00,
2013-07-05 22:00:00,77.8,57.1,29.89,SSE,150,6.9,6.9,49,0.00,OVC,OVC,0.00,WeatherDisplay:10.37,2013-07-06 03:00:00,
2013-07-05 22:06:00,77.7,57.0,29.89,SSE,159,2.3,2.3,49,0.00,OVC,OVC,0.00,WeatherDisplay:10.37,2013-07-06 03:06:00,
2013-07-05 22:11:00,77.5,56.8,29.89,SSE,166,3.5,3.5,49,0.00,OVC,OVC,0.00,WeatherDisplay:10.37,2013-07-06 03:11:00,
2013-07-05 22:16:00,77.3,56.6,29.89,SSE,161,4.6,4.6,49,0.00,OVC,OVC,0.00,WeatherDisplay:10.37,2013-07-06 03:16:00,
2013-07-05 22:21:00,77.1,57.0,29.89,SSE,160,4.6,4.6,50,0.00,OVC,OVC,0.00,WeatherDisplay:10.37,2013-07-06 03:21:00,
2013-07-05 22:26:00,76.9,56.8,29.89,South,179,3.5,3.5,50,0.00,OVC,OVC,0.00,WeatherDisplay:10.37,2013-07-06 03:26:00,
2013-07-05 22:31:00,76.7,57.2,29.90,SSE,159,1.2,1.2,51,0.00,OVC,OVC,0.00,WeatherDisplay:10.37,2013-07-06 03:31:00,
2013-07-05 22:36:00,76.5,57.0,29.89,SSE,154,3.5,3.5,51,0.00,OVC,OVC,0.00,WeatherDisplay:10.37,2013-07-06 03:36:00,
2013-07-05 22:42:00,76.2,57.3,29.89,SSE,153,4.6,4.6,52,0.00,OVC,OVC,0.00,WeatherDisplay:10.37,2013-07-06 03:42:00,
2013-07-05 22:47:00,76.0,57.1,29.89,SSE,156,2.3,0.0,52,0.00,OVC,OVC,0.00,WeatherDisplay:10.37,2013-07-06 03:47:00,
2013-07-05 22:52:00,75.9,57.5,29.89,SSE,165,3.5,3.5,53,0.00,OVC,OVC,0.00,WeatherDisplay:10.37,2013-07-06 03:52:00,
2013-07-05 22:57:00,75.8,57.4,29.89,SSE,150,5.8,5.8,53,0.00,OVC,OVC,0.00,WeatherDisplay:10.37,2013-07-06 03:57:00,
2013-07-05 23:01:00,75.7,57.4,29.89,SSE,147,6.0,6.0,53,0.00,OVC,OVC,0.00,WeatherDisplay:10.37,2013-07-06 04:01:00,
2013-07-05 23:02:00,75.7,57.4,29.89,SSE,151,4.6,4.6,53,0.00,OVC,OVC,0.00,WeatherDisplay:10.37,2013-07-06 04:02:00,
2013-07-05 23:07:00,75.6,57.3,29.89,SE,138,3.5,3.5,53,0.00,OVC,OVC,0.00,WeatherDisplay:10.37,2013-07-06 04:07:00,
2013-07-05 23:13:00,75.5,57.7,29.89,SSE,160,5.8,5.8,54,0.00,OVC,OVC,0.00,WeatherDisplay:10.37,2013-07-06 04:13:00,
2013-07-05 23:18:00,75.4,57.6,29.89,SSE,160,9.2,9.2,54,0.00,OVC,OVC,0.00,WeatherDisplay:10.37,2013-07-06 04:18:00,
2013-07-05 23:23:00,75.3,58.0,29.89,SSE,150,4.6,4.6,55,0.00,OVC,OVC,0.00,WeatherDisplay:10.37,2013-07-06 04:23:00,
2013-07-05 23:28:00,75.2,57.9,29.89,SSE,152,4.6,4.6,55,0.00,OVC,OVC,0.00,WeatherDisplay:10.37,2013-07-06 04:28:00,
2013-07-05 23:33:00,75.1,57.8,29.89,SSE,150,6.0,6.0,55,0.00,OVC,OVC,0.00,WeatherDisplay:10.37,2013-07-06 04:33:00,
2013-07-05 23:38:00,75.1,57.8,29.89,SSE,150,3.5,3.5,55,0.00,OVC,OVC,0.00,WeatherDisplay:10.37,2013-07-06 04:38:00,
2013-07-05 23:43:00,74.9,57.6,29.90,South,173,6.9,6.9,55,0.00,OVC,OVC,0.00,WeatherDisplay:10.37,2013-07-06 04:43:00,
2013-07-05 23:49:00,74.9,57.6,29.90,SSE,148,5.8,5.8,55,0.00,OVC,OVC,0.00,WeatherDisplay:10.37,2013-07-06 04:49:00,
2013-07-05 23:54:00,74.8,57.5,29.90,South,171,3.5,3.5,55,0.00,OVC,OVC,0.00,WeatherDisplay:10.37,2013-07-06 04:54:00,
2013-07-05 23:59:00,74.7,58.0,29.90,South,169,5.8,5.8,56,0.00,OVC,OVC,0.00,WeatherDisplay:10.37,2013-07-06 04:59:00,